Howdy, Stranger!

It looks like you're new here. If you want to get involved, click one of these buttons!

Iblue data import

Hey guys,

today had a first try with the iblue on the track. when i fetch data trough gps photo tagger all data seems to be there and he creates the track. I than used bt747 to export NMEA file and i get this output :

$GPRMC,144605,A,5106.816972,N,00410.797538,E,0.251,,160910,,,A*56
$GPGGA,144605,5106.8170,N,00410.7975,E,1,,,14.073,M,47.0,M,,*59
$GPZDA,144605,16,09,2010,,*47
$GPRMC,144606,A,5106.816977,N,00410.797546,E,0.046,,160910,,,A*5D
$GPGGA,144606,5106.8170,N,00410.7975,E,1,,,14.075,M,47.0,M,,*5C
$GPZDA,144606,16,09,2010,,*44
$GPRMC,144607,A,5106.816986,N,00410.797556,E,0.056,,160910,,,A*52
$GPGGA,144607,5106.8170,N,00410.7976,E,1,,,14.085,M,47.0,M,,*51
$GPZDA,144607,16,09,2010,,*45
$GPRMC,144608,A,5106.816986,N,00410.797601,E,0.129,,160910,,,A*55
$GPGGA,144608,5106.8170,N,00410.7976,E,1,,,14.100,M,47.0,M,,*52
$GPZDA,144608,16,09,2010,,*4A
$GPRMC,144609,A,5106.816979,N,00410.797660,E,0.123,,160910,,,A*59
$GPGGA,144609,5106.8170,N,00410.7977,E,1,,,14.120,M,47.0,M,,*50

when i import in Racechrono it says data imported but shows up with 0 laps etc...
I read that version 1.4 should be able to import iblue files, am I doing something wrong ?

Comments

  • Rebuild the bin file now to NMEA with gpsbabel and now it works ! :)
    NMEA looks like this now :

    $GPRMC,144605.000,A,5106.817,N,00410.798,E,0.25,0.00,160910,,*06
    $GPGGA,144605.000,5106.817,N,00410.798,E,1,00,0.0,61.073,M,0.0,M,,*52
    $GPVTG,0.000,T,0,M,0.251,N,0.465,K*51
    $GPGSA,A,3,,,,,,,,,,,,,0.0,0.0,0.0*32
    $GPRMC,144606.000,A,5106.817,N,00410.798,E,0.05,0.00,160910,,*07
    $GPGGA,144606.000,5106.817,N,00410.798,E,1,00,0.0,61.075,M,0.0,M,,*57
    $GPVTG,0.000,T,0,M,0.046,N,0.085,K*5F
    $GPGSA,A,3,,,,,,,,,,,,,0.0,0.0,0.0*32
    $GPRMC,144607.000,A,5106.817,N,00410.798,E,0.06,0.00,160910,,*05
    $GPGGA,144607.000,5106.817,N,00410.798,E,1,00,0.0,61.085,M,0.0,M,,*59
    $GPVTG,0.000,T,0,M,0.056,N,0.104,K*56
    $GPGSA,A,3,,,,,,,,,,,,,0.0,0.0,0.0*32
  • Seems like the GPS babel fills out the gaps (missing fields). You may want to enable logging of heading (bearing), altitude and speed on the iBlue. Not sure how but I've heard it's possible.
Sign In or Register to comment.